Flight Track Log - Related Links

Times and Time Zones

All times are in EDT time to prevent confusion due to time zone crossing. See the CSH9261 flight status page for this flight to view local times or setup timezone preferences in your user account.

Time Position Orientation Groundspeed Altitude Reporting Facility
EDT Latitude Longitude Course Direction KTS MPH feet Rate Location/Type
Sat 06:35:00 AM 30.5896 121.0240 204° Southwest  Level Estimated
Sat 06:36:00 AM 30.5135 120.9853 204° Southwest  Level Estimated
Sat 06:37:00 AM 30.4374 120.9466 204° Southwest  Level Estimated
Sat 06:38:00 AM 30.3613 120.9079 204° Southwest  Level Estimated
Sat 06:39:00 AM 30.2851 120.8693 204° Southwest  Level Estimated
Sat 06:40:00 AM 30.2090 120.8308 204° Southwest  Level Estimated
Sat 06:41:00 AM 30.1329 120.7924 204° Southwest  Level Estimated
Sat 06:42:00 AM 30.0567 120.7540 204° Southwest  Level Estimated
Sat 06:43:00 AM 29.9805 120.7156 204° Southwest  Level Estimated
Sat 06:44:00 AM 29.9043 120.6774 204° Southwest  Level Estimated
Sat 06:45:00 AM 29.8281 120.6391 204° Southwest  Level Estimated
Sat 06:46:00 AM 29.7519 120.6010 204° Southwest  Level Estimated
Sat 06:47:00 AM 29.6757 120.5629 203° Southwest  Level Estimated
Sat 06:48:00 AM 29.5995 120.5248 203° Southwest  Level Estimated
Sat 06:49:00 AM 29.5233 120.4868 203° Southwest  Level Estimated
Sat 06:50:00 AM 29.4470 120.4489 203° Southwest  Level Estimated
Sat 06:51:00 AM 29.3708 120.4110 203° Southwest  Level Estimated
Sat 06:52:00 AM 29.2945 120.3732 203° Southwest  Level Estimated
Sat 06:53:00 AM 29.2182 120.3354 203° Southwest  Level Estimated
Sat 06:54:00 AM 29.1419 120.2977 203° Southwest  Level Estimated
Sat 06:55:00 AM 29.0656 120.2600 203° Southwest  Level Estimated
Sat 06:56:00 AM 28.9893 120.2225 203° Southwest  Level Estimated
Sat 06:57:00 AM 28.9130 120.1849 203° Southwest  Level Estimated
Sat 06:58:00 AM 28.8367 120.1474 203° Southwest  Level Estimated
Sat 06:59:00 AM 28.7603 120.1100 203° Southwest  Level Estimated
Sat 07:00:00 AM 28.6840 120.0726 203° Southwest  Level Estimated
Sat 07:01:00 AM 28.6076 120.0353 203° Southwest  Level Estimated
Sat 07:02:00 AM 28.5312 119.9980 203° Southwest  Level Estimated
Sat 07:03:00 AM 28.4549 119.9608 203° Southwest  Level Estimated
Sat 07:04:00 AM 28.3785 119.9236 203° Southwest  Level Estimated
Sat 07:05:00 AM 28.3021 119.8865 203° Southwest  Level Estimated
Sat 07:06:00 AM 28.2257 119.8495 203° Southwest  Level Estimated
Sat 07:07:00 AM 28.1492 119.8125 203° Southwest  Level Estimated
Sat 07:08:00 AM 28.0728 119.7755 203° Southwest  Level Estimated
Sat 07:09:00 AM 27.9964 119.7386 203° Southwest  Level Estimated
Sat 07:10:00 AM 27.9199 119.7018 203° Southwest  Level Estimated
Sat 07:11:00 AM 27.8435 119.6650 203° Southwest  Level Estimated
Sat 07:12:00 AM 27.7670 119.6283 203° Southwest  Level Estimated
Sat 07:13:00 AM 27.6905 119.5916 203° Southwest  Level Estimated
Sat 07:14:00 AM 27.6140 119.5549 203° Southwest  Level Estimated
Sat 07:15:00 AM 27.5375 119.5184 203° Southwest  Level Estimated
Sat 07:16:00 AM 27.4610 119.4818 203° Southwest  Level Estimated
Sat 07:17:00 AM 27.3845 119.4453 203° Southwest  Level Estimated
Sat 07:18:00 AM 27.3079 119.4089 203° Southwest  Level Estimated
Sat 07:19:00 AM 27.2314 119.3725 203° Southwest  Level Estimated
Sat 07:20:00 AM 27.1549 119.3362 203° Southwest  Level Estimated
Sat 07:21:00 AM 27.0783 119.2999 203° Southwest  Level Estimated
Sat 07:22:00 AM 27.0017 119.2637 203° Southwest  Level Estimated
Sat 07:23:00 AM 26.9252 119.2275 203° Southwest  Level Estimated
Sat 07:24:00 AM 26.8486 119.1914 203° Southwest  Level Estimated
Sat 07:25:00 AM 26.7720 119.1553 203° Southwest  Level Estimated
Sat 07:26:00 AM 26.6954 119.1192 203° Southwest  Level Estimated
Sat 07:27:00 AM 26.6188 119.0832 203° Southwest  Level Estimated
Sat 07:28:00 AM 26.5421 119.0473 203° Southwest  Level Estimated
Sat 07:29:00 AM 26.4655 119.0114 203° Southwest  Level Estimated
Sat 07:30:00 AM 26.3889 118.9756 203° Southwest  Level Estimated
Sat 07:31:00 AM 26.3122 118.9398 203° Southwest  Level Estimated
Sat 07:32:00 AM 26.2356 118.9040 203° Southwest  Level Estimated
Sat 07:33:00 AM 26.1589 118.8683 203° Southwest  Level Estimated
Sat 07:34:00 AM 26.0822 118.8327 203° Southwest  Level Estimated
Sat 07:35:00 AM 26.0055 118.7971 203° Southwest  Level Estimated
Sat 07:36:00 AM 25.9289 118.7615 203° Southwest  Level Estimated
Sat 07:37:00 AM 25.8521 118.7260 203° Southwest  Level Estimated
Sat 07:38:00 AM 25.7754 118.6905 203° Southwest  Level Estimated
Sat 07:39:00 AM 25.6987 118.6551 203° Southwest  Level Estimated
Sat 07:40:00 AM 25.6220 118.6197 203° Southwest  Level Estimated
Sat 07:41:00 AM 25.5453 118.5844 203° Southwest  Level Estimated
Sat 07:42:00 AM 25.4685 118.5491 203° Southwest  Level Estimated
Sat 07:43:00 AM 25.3918 118.5138 203° Southwest  Level Estimated
Sat 07:44:00 AM 25.3150 118.4786 203° Southwest  Level Estimated
Sat 07:45:00 AM 25.2382 118.4435 203° Southwest  Level Estimated
Sat 07:46:00 AM 25.1615 118.4084 202° Southwest  Level Estimated
Sat 07:47:00 AM 25.0847 118.3733 202° Southwest  Level Estimated
Sat 07:48:00 AM 25.0079 118.3383 202° Southwest  Level Estimated
Sat 07:49:00 AM 24.9311 118.3033 202° Southwest  Level Estimated
Sat 07:50:00 AM 24.8543 118.2684 202° Southwest  Level Estimated

Login

Don't have an account? Register now (free) for customized features, flight alerts, and more!